Time;durP1;ratioP1;P1;durP2;ratioP2;P2;SDS_P1;SDS_P2;PMS_P1;PMS_P2;Temp;Humidity;BMP_temperature;BMP_pressure;BME280_temperature;BME280_humidity;BME280_pressure;Samples;Min_cycle;Max_cycle;Signal;HPM_P1;HPM_P2
2022/08/19 00:02:15;;;;;;;15.60;14.30;;;23.90;81.40;;;;;;10490373;28;20243;-78
2022/08/19 00:07:18;;;;;;;16.60;15.20;;;23.90;80.90;;;;;;10454237;28;20607;-79
2022/08/19 00:12:21;;;;;;;16.10;14.80;;;23.90;79.80;;;;;;10512477;28;20199;-79
2022/08/19 00:17:23;;;;;;;16.90;15.23;;;23.90;80.20;;;;;;10435247;28;20237;-80
2022/08/19 00:22:28;;;;;;;16.50;15.10;;;23.90;80.00;;;;;;10473699;28;20197;-80
2022/08/19 00:27:30;;;;;;;15.63;14.40;;;23.90;79.80;;;;;;10485821;28;20240;-79
2022/08/19 00:32:34;;;;;;;15.83;14.53;;;23.80;80.20;;;;;;10511811;28;20192;-80
2022/08/19 00:37:38;;;;;;;16.20;14.90;;;23.80;80.80;;;;;;10453828;28;20240;-80
2022/08/19 00:42:40;;;;;;;15.73;14.33;;;23.80;81.00;;;;;;10492473;28;20193;-80
2022/08/19 00:47:42;;;;;;;16.53;15.03;;;23.80;81.00;;;;;;10468660;28;20263;-80
2022/08/19 00:52:49;;;;;;;16.30;14.97;;;23.80;80.90;;;;;;10519682;28;20192;-80
2022/08/19 00:57:55;;;;;;;16.40;15.10;;;23.80;82.80;;;;;;10489268;28;20220;-80
2022/08/19 01:02:58;;;;;;;16.73;15.20;;;23.80;81.60;;;;;;10489664;28;20197;-79
2022/08/19 01:08:03;;;;;;;16.47;15.00;;;23.80;80.90;;;;;;10465757;28;20205;-79
2022/08/19 01:13:05;;;;;;;17.77;15.93;;;23.70;81.40;;;;;;10502642;28;20185;-80
2022/08/19 01:18:11;;;;;;;18.33;16.90;;;23.70;81.90;;;;;;10459995;28;20211;-79
2022/08/19 01:23:15;;;;;;;18.23;16.73;;;23.70;82.80;;;;;;10459274;28;20205;-80
2022/08/19 01:28:21;;;;;;;17.07;15.70;;;23.70;81.50;;;;;;10503654;22;20220;-81
2022/08/19 01:33:23;;;;;;;17.80;16.30;;;23.70;81.50;;;;;;10517675;28;20276;-79
2022/08/19 01:38:31;;;;;;;17.47;15.97;;;23.70;82.30;;;;;;10502540;28;20212;-79
2022/08/19 01:43:33;;;;;;;17.77;16.27;;;23.70;82.50;;;;;;10485805;28;20215;-79
2022/08/19 01:48:37;;;;;;;19.63;17.93;;;23.70;82.10;;;;;;10503268;28;20218;-79
2022/08/19 01:53:42;;;;;;;17.93;16.40;;;23.70;82.00;;;;;;10504477;28;20184;-79
2022/08/19 01:58:49;;;;;;;17.57;15.97;;;23.70;81.60;;;;;;10501971;28;20756;-79
2022/08/19 02:03:53;;;;;;;19.53;17.73;;;23.70;81.50;;;;;;10468239;28;20212;-79
2022/08/19 02:08:56;;;;;;;18.30;16.80;;;23.60;82.00;;;;;;10485978;28;20288;-79
2022/08/19 02:13:59;;;;;;;17.53;16.03;;;23.70;83.20;;;;;;10544531;28;20553;-79
2022/08/19 02:19:01;;;;;;;19.83;18.00;;;23.60;83.00;;;;;;10505617;28;20278;-79
2022/08/19 02:24:05;;;;;;;20.67;18.87;;;23.60;82.80;;;;;;10508498;28;20307;-79
2022/08/19 02:29:07;;;;;;;21.40;19.43;;;23.60;81.40;;;;;;10525206;28;20267;-81
2022/08/19 02:34:09;;;;;;;21.23;19.43;;;23.60;82.90;;;;;;10502551;28;20185;-80
2022/08/19 02:39:13;;;;;;;19.50;17.70;;;23.50;83.20;;;;;;10528805;28;20212;-80
2022/08/19 02:44:15;;;;;;;21.10;19.10;;;23.50;82.70;;;;;;10494913;28;20227;-80
2022/08/19 02:49:17;;;;;;;22.97;20.87;;;23.50;82.30;;;;;;10538188;28;20675;-80
2022/08/19 02:54:21;;;;;;;21.97;20.07;;;23.50;82.10;;;;;;10496667;28;20596;-79
2022/08/19 02:59:24;;;;;;;21.70;19.90;;;23.50;82.50;;;;;;10551322;28;20222;-79
2022/08/19 03:04:26;;;;;;;22.97;20.97;;;23.40;82.70;;;;;;10512655;28;20289;-80
2022/08/19 03:09:30;;;;;;;23.77;21.77;;;23.40;83.50;;;;;;10528375;28;20243;-80
2022/08/19 03:14:32;;;;;;;25.33;22.97;;;23.40;85.00;;;;;;10494670;28;20212;-81
2022/08/19 03:19:35;;;;;;;24.37;21.97;;;23.30;85.80;;;;;;10529214;28;20212;-79
2022/08/19 03:24:38;;;;;;;24.63;22.50;;;23.30;86.40;;;;;;10517835;28;20608;-78
2022/08/19 03:29:41;;;;;;;24.70;22.60;;;23.30;86.30;;;;;;10538953;28;20717;-78
2022/08/19 03:34:43;;;;;;;25.00;22.80;;;23.30;86.90;;;;;;10502401;28;20675;-78
2022/08/19 03:39:46;;;;;;;24.87;22.50;;;23.20;85.30;;;;;;10532663;28;20298;-78
2022/08/19 03:44:48;;;;;;;25.53;23.23;;;23.20;85.10;;;;;;10502070;28;20220;-80
2022/08/19 03:49:50;;;;;;;25.40;22.67;;;23.20;84.70;;;;;;10531821;28;20219;-79
2022/08/19 03:54:54;;;;;;;25.33;23.03;;;23.10;84.80;;;;;;10517314;28;20206;-79
2022/08/19 03:59:56;;;;;;;26.83;24.30;;;23.00;84.90;;;;;;10551408;28;20220;-79
2022/08/19 04:04:58;;;;;;;27.30;24.80;;;23.10;86.00;;;;;;10516791;28;20210;-79
2022/08/19 04:10:01;;;;;;;25.80;23.50;;;23.00;85.20;;;;;;10548994;28;20246;-79
2022/08/19 04:15:05;;;;;;;25.93;23.67;;;23.00;85.10;;;;;;10540633;28;20224;-79
2022/08/19 04:20:08;;;;;;;25.83;23.63;;;23.00;84.90;;;;;;10543371;28;20668;-79
2022/08/19 04:25:12;;;;;;;26.60;24.30;;;23.00;85.60;;;;;;10547651;28;20310;-79
2022/08/19 04:30:15;;;;;;;27.10;24.53;;;23.00;85.70;;;;;;10535645;28;20228;-79
2022/08/19 04:35:17;;;;;;;25.13;22.97;;;23.00;84.50;;;;;;10521708;28;20201;-80
2022/08/19 04:45:40;;;;;;;27.30;24.83;;;23.00;84.80;;;;;;10515574;28;20227;-80
2022/08/19 04:50:44;;;;;;;26.03;23.63;;;22.90;85.20;;;;;;10541551;28;20212;-80
2022/08/19 04:55:47;;;;;;;27.67;25.27;;;23.00;84.50;;;;;;10535048;28;20396;-79
2022/08/19 05:00:49;;;;;;;28.83;26.13;;;23.00;84.80;;;;;;10547411;28;20207;-79
2022/08/19 05:05:51;;;;;;;27.80;25.37;;;23.00;85.30;;;;;;10513147;28;20212;-79
2022/08/19 05:10:55;;;;;;;26.73;24.37;;;23.00;86.60;;;;;;10521572;28;20242;-80
2022/08/19 05:15:59;;;;;;;27.30;24.80;;;22.90;87.40;;;;;;10517724;28;20302;-79
2022/08/19 05:26:28;;;;;;;27.53;24.93;;;22.90;87.20;;;;;;10540581;28;20258;-79
2022/08/19 05:31:30;;;;;;;27.80;25.40;;;22.90;86.60;;;;;;10546847;28;20325;-80
2022/08/19 05:36:39;;;;;;;28.00;25.60;;;22.90;87.20;;;;;;10546084;28;20199;-80
2022/08/19 05:41:44;;;;;;;28.57;25.77;;;23.00;86.70;;;;;;10545931;28;20184;-79
2022/08/19 05:46:47;;;;;;;27.53;25.23;;;23.00;85.80;;;;;;10522513;28;20382;-79
2022/08/19 05:51:50;;;;;;;26.40;24.10;;;23.00;87.20;;;;;;10523522;28;20196;-79
2022/08/19 05:57:02;;;;;;;26.63;24.53;;;23.00;86.30;;;;;;10517920;28;20233;-79
2022/08/19 06:02:06;;;;;;;28.73;26.00;;;23.00;86.60;;;;;;10514846;28;20526;-80
2022/08/19 06:07:08;;;;;;;26.37;24.00;;;23.00;85.70;;;;;;10528455;28;20216;-80
2022/08/19 06:12:11;;;;;;;26.60;24.27;;;23.00;87.30;;;;;;10504138;28;20193;-80
2022/08/19 06:17:13;;;;;;;25.10;22.80;;;23.00;86.80;;;;;;10530919;28;20252;-80
2022/08/19 06:22:16;;;;;;;25.90;23.70;;;23.00;86.30;;;;;;10527877;28;20188;-79
2022/08/19 06:27:19;;;;;;;26.87;24.57;;;22.90;87.00;;;;;;10536480;28;20234;-80
2022/08/19 06:32:22;;;;;;;26.97;24.47;;;23.00;85.80;;;;;;10517347;28;20189;-79
2022/08/19 06:37:24;;;;;;;26.60;24.00;;;23.00;87.20;;;;;;10513567;28;20220;-80
2022/08/19 06:42:27;;;;;;;27.10;24.67;;;23.00;87.80;;;;;;10525425;28;20192;-80
2022/08/19 06:47:30;;;;;;;29.10;26.43;;;23.00;89.20;;;;;;10532849;28;20269;-79
2022/08/19 06:52:34;;;;;;;27.37;24.83;;;22.90;90.00;;;;;;10526800;28;20220;-80
2022/08/19 06:57:38;;;;;;;28.17;25.67;;;22.90;90.30;;;;;;10543631;28;20212;-80
2022/08/19 07:02:40;;;;;;;29.30;26.80;;;22.90;90.30;;;;;;10511029;28;20220;-80
2022/08/19 07:07:42;;;;;;;29.73;26.83;;;22.90;90.70;;;;;;10534937;28;20298;-80
2022/08/19 07:12:47;;;;;;;29.30;26.70;;;22.90;90.20;;;;;;10511525;28;20676;-80
2022/08/19 07:17:51;;;;;;;28.57;26.17;;;22.90;90.20;;;;;;10534248;28;20265;-80
2022/08/19 07:22:53;;;;;;;26.47;23.97;;;22.90;90.30;;;;;;10494222;28;20199;-80
2022/08/19 07:27:56;;;;;;;27.90;25.43;;;22.90;90.20;;;;;;10524823;28;20669;-82
2022/08/19 07:32:58;;;;;;;26.80;24.20;;;23.00;90.10;;;;;;10530466;28;20197;-81
2022/08/19 07:38:03;;;;;;;26.10;23.67;;;22.90;89.90;;;;;;10520678;28;20761;-79
2022/08/19 07:43:06;;;;;;;26.40;24.20;;;23.00;89.70;;;;;;10500773;28;20201;-79
2022/08/19 07:48:09;;;;;;;26.33;24.07;;;23.00;88.00;;;;;;10517943;28;20227;-78
2022/08/19 07:53:11;;;;;;;24.20;22.10;;;22.90;88.70;;;;;;10517811;28;20188;-78
2022/08/19 07:58:18;;;;;;;25.57;23.23;;;22.90;88.40;;;;;;10527559;28;20302;-81
2022/08/19 08:09:10;;;;;;;25.90;23.40;;;22.90;88.70;;;;;;10528721;28;20200;-81
2022/08/19 08:14:07;;;;;;;26.80;24.37;;;22.90;90.20;;;;;;10499495;28;20195;-80
2022/08/19 08:19:10;;;;;;;26.20;23.93;;;22.90;91.00;;;;;;10517923;28;20267;-79
2022/08/19 08:24:12;;;;;;;26.37;23.97;;;22.80;91.00;;;;;;10511805;28;20192;-81
2022/08/19 08:29:16;;;;;;;25.47;23.30;;;22.70;91.60;;;;;;10530563;28;20676;-81
2022/08/19 08:34:18;;;;;;;28.13;25.23;;;22.60;91.90;;;;;;10525880;28;20196;-81
2022/08/19 08:39:22;;;;;;;21.43;19.57;;;22.50;91.20;;;;;;10531339;28;20278;-81
2022/08/19 08:44:38;;;;;;;25.87;23.50;;;22.40;91.70;;;;;;10522876;28;20203;-80
2022/08/19 08:49:46;;;;;;;27.83;25.40;;;22.40;91.60;;;;;;10507285;28;20208;-79
2022/08/19 08:54:55;;;;;;;26.17;23.90;;;22.40;92.10;;;;;;10519594;28;20274;-79
2022/08/19 09:00:05;;;;;;;26.90;24.67;;;22.40;92.10;;;;;;10544899;28;20699;-81
2022/08/19 09:05:09;;;;;;;26.27;23.93;;;22.50;92.00;;;;;;10503243;28;20578;-81
2022/08/19 09:10:22;;;;;;;26.40;23.90;;;22.70;92.30;;;;;;10521786;28;20711;-80
2022/08/19 09:15:32;;;;;;;26.23;23.93;;;22.80;92.50;;;;;;10517460;28;20668;-80
2022/08/19 09:20:34;;;;;;;24.70;22.47;;;22.90;91.90;;;;;;10492868;28;20216;-80
2022/08/19 09:25:37;;;;;;;23.33;21.23;;;23.00;92.20;;;;;;10534088;28;20208;-79
2022/08/19 09:30:42;;;;;;;28.57;25.57;;;23.00;92.20;;;;;;10547994;28;20285;-80
2022/08/19 09:35:44;;;;;;;24.30;22.20;;;23.10;91.20;;;;;;10519630;28;20193;-80
2022/08/19 09:40:46;;;;;;;22.90;20.77;;;23.10;91.50;;;;;;10540151;28;20239;-80
2022/08/19 09:45:49;;;;;;;20.40;18.57;;;23.10;92.00;;;;;;10525761;28;20216;-80
2022/08/19 09:50:51;;;;;;;21.37;19.37;;;23.20;91.30;;;;;;10532610;28;20211;-79
2022/08/19 09:55:56;;;;;;;22.07;19.87;;;23.20;91.50;;;;;;10541648;28;20192;-80
2022/08/19 10:01:01;;;;;;;19.83;18.23;;;23.20;91.20;;;;;;10522742;28;20215;-80
2022/08/19 10:06:05;;;;;;;20.70;19.00;;;23.30;91.50;;;;;;10544628;28;20576;-80
2022/08/19 10:11:08;;;;;;;19.00;17.30;;;23.30;90.90;;;;;;10512204;28;20243;-80
2022/08/19 10:16:14;;;;;;;19.53;18.03;;;23.30;90.80;;;;;;10514085;28;20185;-79
2022/08/19 10:21:19;;;;;;;20.17;18.57;;;23.40;90.50;;;;;;10532239;28;20234;-81
2022/08/19 10:26:24;;;;;;;18.57;16.97;;;23.40;90.60;;;;;;10533885;28;20299;-80
2022/08/19 10:31:29;;;;;;;19.30;17.67;;;23.50;90.80;;;;;;10519039;28;20234;-80
2022/08/19 10:36:35;;;;;;;18.17;16.50;;;23.50;91.30;;;;;;10490652;28;20195;-81
2022/08/19 10:41:38;;;;;;;17.37;15.90;;;23.50;91.70;;;;;;10534992;28;20207;-81
2022/08/19 10:46:44;;;;;;;18.97;17.50;;;23.60;92.00;;;;;;10524663;28;20217;-80
2022/08/19 10:57:06;;;;;;;16.93;15.60;;;23.80;91.50;;;;;;10552327;28;20430;-81
2022/08/19 11:02:11;;;;;;;15.70;14.20;;;23.90;91.30;;;;;;10506934;28;20685;-81
2022/08/19 11:07:13;;;;;;;14.37;13.00;;;24.00;91.20;;;;;;10537819;28;20249;-81
2022/08/19 11:12:16;;;;;;;14.67;13.37;;;24.00;90.70;;;;;;10524662;28;20215;-80
2022/08/19 11:17:23;;;;;;;13.70;12.53;;;24.00;89.80;;;;;;10519296;28;20332;-81
2022/08/19 11:22:25;;;;;;;15.90;14.60;;;23.90;89.90;;;;;;10523716;28;20303;-81
2022/08/19 11:27:28;;;;;;;14.90;13.70;;;23.90;89.30;;;;;;10524308;28;20217;-81
2022/08/19 11:32:32;;;;;;;13.37;12.30;;;23.90;89.50;;;;;;10522416;28;20192;-82
2022/08/19 11:37:37;;;;;;;11.53;10.63;;;24.00;90.20;;;;;;10508099;28;21125;-82
2022/08/19 11:42:57;;;;;;;13.67;12.70;;;24.10;90.00;;;;;;10527000;28;20184;-82
2022/08/19 11:48:00;;;;;;;12.30;11.50;;;24.20;90.30;;;;;;10527241;28;20278;-82
2022/08/19 11:53:02;;;;;;;13.40;12.50;;;24.30;87.00;;;;;;10512894;28;20188;-80
2022/08/19 11:58:06;;;;;;;13.23;12.23;;;24.30;88.10;;;;;;10543107;28;20231;-79
2022/08/19 12:03:09;;;;;;;11.30;10.50;;;24.30;87.20;;;;;;10493624;28;20245;-82
2022/08/19 12:08:12;;;;;;;12.93;11.67;;;24.40;87.10;;;;;;10510536;28;20287;-82
2022/08/19 12:13:18;;;;;;;13.23;12.10;;;24.50;88.50;;;;;;10540637;28;20196;-82
2022/08/19 12:18:21;;;;;;;13.03;11.83;;;24.50;87.60;;;;;;10496869;28;20219;-82
2022/08/19 12:23:24;;;;;;;12.00;11.00;;;24.50;85.60;;;;;;10508912;28;20321;-82
2022/08/19 12:28:26;;;;;;;14.27;12.97;;;24.50;85.70;;;;;;10552337;28;20228;-82
2022/08/19 12:33:31;;;;;;;13.30;12.00;;;24.50;87.30;;;;;;10504042;28;20656;-81
2022/08/19 12:38:34;;;;;;;14.10;13.07;;;24.50;90.50;;;;;;10528452;28;20211;-82
2022/08/19 12:43:36;;;;;;;14.57;13.37;;;24.40;90.80;;;;;;10516312;28;20207;-82
2022/08/19 12:48:41;;;;;;;16.60;15.33;;;24.20;91.30;;;;;;10534628;28;20220;-81
2022/08/19 12:53:44;;;;;;;17.37;15.97;;;24.10;91.80;;;;;;10530468;28;20227;-81
2022/08/19 12:58:46;;;;;;;15.63;14.23;;;24.00;91.90;;;;;;10534641;28;20251;-82
2022/08/19 13:03:51;;;;;;;18.23;16.83;;;24.00;92.20;;;;;;10505024;28;20644;-81
2022/08/19 13:08:54;;;;;;;18.40;16.73;;;24.10;92.60;;;;;;10511750;28;20223;-83
2022/08/19 13:13:56;;;;;;;19.40;17.77;;;24.10;92.80;;;;;;10522641;28;20192;-81
2022/08/19 13:19:02;;;;;;;17.40;16.00;;;24.10;93.10;;;;;;10513085;28;20644;-80
2022/08/19 13:24:05;;;;;;;20.80;19.10;;;24.10;93.10;;;;;;10529604;28;20203;-80
2022/08/19 13:34:39;;;;;;;23.67;21.67;;;24.00;93.40;;;;;;10506415;28;20600;-81
2022/08/19 13:39:44;;;;;;;22.23;20.13;;;23.80;93.60;;;;;;10509063;28;20212;-80
2022/08/19 13:44:47;;;;;;;27.20;24.90;;;23.80;93.90;;;;;;10481155;28;20649;-82
2022/08/19 13:49:51;;;;;;;23.33;21.23;;;23.80;93.90;;;;;;10462134;28;20358;-81
2022/08/19 13:54:57;;;;;;;24.17;22.10;;;23.70;93.80;;;;;;10470966;28;20275;-79
2022/08/19 13:59:59;;;;;;;30.10;27.20;;;23.60;94.00;;;;;;10452282;28;20216;-79
2022/08/19 14:05:03;;;;;;;28.47;26.07;;;23.60;94.10;;;;;;10468204;28;20612;-82
2022/08/19 14:10:11;;;;;;;33.80;30.43;;;23.50;94.30;;;;;;10469432;28;20227;-80
2022/08/19 14:15:14;;;;;;;32.37;29.67;;;23.30;95.00;;;;;;10501116;28;20278;-80
2022/08/19 14:20:17;;;;;;;31.63;28.43;;;23.20;95.10;;;;;;10490958;28;20220;-81
2022/08/19 14:25:21;;;;;;;33.00;30.10;;;23.10;95.10;;;;;;10457970;28;20211;-80
2022/08/19 14:30:26;;;;;;;31.40;28.60;;;23.10;95.00;;;;;;10483070;28;20224;-82
2022/08/19 14:35:34;;;;;;;31.13;28.10;;;23.10;94.90;;;;;;10460939;28;20284;-81
2022/08/19 14:40:36;;;;;;;27.23;24.90;;;23.00;95.20;;;;;;10475564;28;20218;-82
2022/08/19 14:45:40;;;;;;;26.80;24.40;;;23.10;94.90;;;;;;10464366;28;20202;-81
2022/08/19 14:50:44;;;;;;;25.93;23.63;;;23.30;94.70;;;;;;10448123;28;20627;-81
2022/08/19 14:55:47;;;;;;;25.70;23.50;;;23.30;94.20;;;;;;10497139;28;20720;-82
2022/08/19 15:00:49;;;;;;;25.07;22.90;;;23.30;94.00;;;;;;10514737;28;20221;-80
2022/08/19 15:05:53;;;;;;;23.27;21.27;;;23.40;94.00;;;;;;10491680;28;20284;-81
2022/08/19 15:10:56;;;;;;;23.47;21.57;;;23.40;94.20;;;;;;10460073;28;20216;-79
2022/08/19 15:15:58;;;;;;;21.40;19.70;;;23.40;94.00;;;;;;10470608;28;20193;-80
2022/08/19 15:21:05;;;;;;;19.93;18.23;;;23.60;93.80;;;;;;10478546;28;20216;-83
2022/08/19 15:26:08;;;;;;;21.60;19.80;;;23.80;93.60;;;;;;10491664;28;20291;-84
2022/08/19 15:31:11;;;;;;;19.43;17.80;;;24.00;93.20;;;;;;10495360;28;20224;-83
2022/08/19 15:36:15;;;;;;;19.20;17.70;;;24.20;92.90;;;;;;10488238;28;20244;-84
2022/08/19 15:41:25;;;;;;;20.37;18.67;;;24.30;92.80;;;;;;10476712;28;20212;-80
2022/08/19 15:46:29;;;;;;;20.87;19.07;;;24.50;92.60;;;;;;10492346;28;20235;-79
2022/08/19 15:51:34;;;;;;;20.50;18.80;;;24.50;92.90;;;;;;10476912;28;20581;-79
2022/08/19 16:07:24;;;;;;;19.03;17.47;;;24.60;92.80;;;;;;10473323;28;20299;-83
2022/08/19 16:12:28;;;;;;;20.13;18.53;;;24.60;92.80;;;;;;10484044;28;20244;-83
2022/08/19 16:17:30;;;;;;;19.03;17.63;;;24.60;92.80;;;;;;10486401;28;20299;-83
2022/08/19 16:22:33;;;;;;;19.40;17.70;;;24.50;92.60;;;;;;10440179;28;20247;-82
2022/08/19 16:27:36;;;;;;;22.57;20.70;;;24.40;92.60;;;;;;10501723;28;20231;-81
2022/08/19 16:32:43;;;;;;;21.70;20.00;;;24.40;92.80;;;;;;10482265;28;20636;-80
2022/08/19 16:37:47;;;;;;;23.73;21.53;;;24.30;92.80;;;;;;10478964;28;20216;-82
2022/08/19 16:42:51;;;;;;;20.80;19.20;;;24.20;93.00;;;;;;10465492;28;20682;-82
2022/08/19 16:47:53;;;;;;;22.40;20.47;;;24.10;93.00;;;;;;10498690;28;20221;-80
2022/08/19 16:52:58;;;;;;;22.90;21.00;;;24.10;93.10;;;;;;10480360;28;20283;-79
2022/08/19 16:58:03;;;;;;;23.87;21.97;;;24.00;93.30;;;;;;10501678;28;20223;-83
2022/08/19 17:03:08;;;;;;;25.13;23.07;;;23.90;93.50;;;;;;10461344;28;20263;-83
2022/08/19 17:08:12;;;;;;;27.50;24.80;;;23.90;93.60;;;;;;10477129;28;20270;-83
2022/08/19 17:13:14;;;;;;;25.80;23.50;;;23.80;94.00;;;;;;10481063;28;20304;-83
2022/08/19 17:18:18;;;;;;;21.60;19.77;;;23.80;94.00;;;;;;10491781;28;20683;-82
2022/08/19 17:23:23;;;;;;;23.53;21.50;;;23.70;94.00;;;;;;10461607;28;20200;-83
2022/08/19 17:28:29;;;;;;;21.70;19.90;;;23.60;93.70;;;;;;10496094;28;20227;-79
2022/08/19 17:33:31;;;;;;;22.60;20.60;;;23.50;93.80;;;;;;10509235;28;20200;-83
2022/08/19 17:38:36;;;;;;;23.40;21.50;;;23.40;94.20;;;;;;10499222;28;20658;-83
2022/08/19 17:43:39;;;;;;;24.53;22.50;;;23.30;94.60;;;;;;10483272;28;20201;-82
2022/08/19 17:48:41;;;;;;;24.13;21.93;;;23.20;94.50;;;;;;10465776;28;20769;-81
2022/08/19 17:53:45;;;;;;;24.37;22.00;;;23.20;94.50;;;;;;10500161;28;20572;-81
2022/08/19 17:58:47;;;;;;;23.10;21.07;;;23.20;94.40;;;;;;10481733;28;20212;-81
2022/08/19 18:03:50;;;;;;;21.87;19.97;;;23.20;94.50;;;;;;10498819;28;20196;-82
2022/08/19 18:08:53;;;;;;;23.33;21.53;;;23.10;94.70;;;;;;10478161;28;20569;-79
2022/08/19 18:13:56;;;;;;;22.80;20.77;;;23.10;94.40;;;;;;10483284;28;20203;-83
2022/08/19 18:18:58;;;;;;;21.67;19.97;;;23.00;94.50;;;;;;10495321;28;20755;-82
2022/08/19 18:24:02;;;;;;;21.07;19.40;;;23.00;94.50;;;;;;10481076;28;20205;-82
2022/08/19 18:29:08;;;;;;;21.00;19.30;;;23.00;94.30;;;;;;10484784;28;20303;-84
2022/08/19 18:34:10;;;;;;;19.90;18.30;;;22.90;94.30;;;;;;10490053;28;20224;-84
2022/08/19 18:49:54;;;;;;;20.10;18.40;;;22.70;94.70;;;;;;10506518;28;20212;-83
2022/08/19 18:54:58;;;;;;;21.57;19.80;;;22.60;94.70;;;;;;10489915;28;20250;-81
2022/08/19 19:00:02;;;;;;;21.60;19.90;;;22.60;94.90;;;;;;10484908;28;20633;-81
2022/08/19 19:05:06;;;;;;;20.30;18.50;;;22.60;95.10;;;;;;10490497;28;20197;-81
2022/08/19 19:10:10;;;;;;;19.70;18.10;;;22.60;95.30;;;;;;10481735;28;20244;-81
2022/08/19 19:15:12;;;;;;;20.00;18.40;;;22.70;95.30;;;;;;10511862;28;20208;-82
2022/08/19 19:20:15;;;;;;;19.87;18.30;;;22.70;95.10;;;;;;10486034;28;20250;-83
2022/08/19 19:25:19;;;;;;;20.00;18.50;;;22.70;95.20;;;;;;10483361;28;20231;-84
2022/08/19 19:30:24;;;;;;;20.07;18.47;;;22.70;95.20;;;;;;10545300;22;20589;-79
2022/08/19 19:35:28;;;;;;;19.47;17.83;;;22.70;95.20;;;;;;10547058;28;20204;-81
2022/08/19 19:40:32;;;;;;;18.87;17.17;;;22.70;94.90;;;;;;10545074;28;20219;-83
2022/08/19 19:45:34;;;;;;;20.50;18.80;;;22.70;95.10;;;;;;10521364;28;20197;-81
2022/08/19 19:50:36;;;;;;;19.73;18.27;;;22.70;95.10;;;;;;10511034;28;20657;-80
2022/08/19 19:55:39;;;;;;;18.33;16.93;;;22.70;95.10;;;;;;10482972;28;20591;-80
2022/08/19 20:00:41;;;;;;;17.30;15.90;;;22.70;95.10;;;;;;10511215;28;20750;-80
2022/08/19 20:05:44;;;;;;;15.77;14.60;;;22.60;95.30;;;;;;10519076;28;20196;-81
2022/08/19 20:10:47;;;;;;;17.60;16.10;;;22.60;95.30;;;;;;10524651;28;20247;-81
2022/08/19 20:15:49;;;;;;;15.70;14.17;;;22.60;95.00;;;;;;10525672;28;20205;-82
2022/08/19 20:20:52;;;;;;;14.23;13.23;;;22.60;95.20;;;;;;10513797;28;20216;-81
2022/08/19 20:25:55;;;;;;;15.50;14.40;;;22.60;94.90;;;;;;10487694;28;20201;-82
2022/08/19 20:30:57;;;;;;;11.93;10.87;;;22.60;94.10;;;;;;10509591;28;20243;-82
2022/08/19 20:35:59;;;;;;;12.50;11.40;;;22.70;93.50;;;;;;10518014;28;20199;-81
2022/08/19 20:41:03;;;;;;;12.23;11.43;;;22.70;93.20;;;;;;10528682;28;20200;-82
2022/08/19 20:46:05;;;;;;;11.83;11.00;;;22.80;93.00;;;;;;10547025;28;20264;-81
2022/08/19 20:51:09;;;;;;;9.60;8.90;;;22.90;92.50;;;;;;10541180;28;20231;-82
2022/08/19 20:56:12;;;;;;;9.47;8.77;;;22.90;91.90;;;;;;10527933;28;20249;-82
2022/08/19 21:01:14;;;;;;;7.90;7.33;;;22.90;90.40;;;;;;10528664;28;20215;-82
2022/08/19 21:06:17;;;;;;;7.60;7.10;;;23.00;90.00;;;;;;10526931;28;20215;-82
2022/08/19 21:11:21;;;;;;;6.80;6.30;;;23.00;88.20;;;;;;10528296;28;20220;-82
2022/08/19 21:16:24;;;;;;;7.00;6.50;;;23.00;87.40;;;;;;10504686;28;20271;-82
2022/08/19 21:21:26;;;;;;;6.40;5.80;;;23.10;88.60;;;;;;10534065;28;20211;-80
2022/08/19 21:26:29;;;;;;;6.70;6.00;;;23.20;87.50;;;;;;10517508;28;20203;-81
2022/08/19 21:31:32;;;;;;;5.37;4.97;;;23.20;89.10;;;;;;10506919;28;20231;-82
2022/08/19 21:36:34;;;;;;;5.63;5.33;;;23.20;87.00;;;;;;10522407;28;20250;-82
2022/08/19 21:41:37;;;;;;;5.93;5.53;;;23.30;86.70;;;;;;10526564;28;20676;-81
2022/08/19 21:46:39;;;;;;;5.87;5.47;;;23.30;85.00;;;;;;10503119;28;20196;-82
2022/08/19 21:51:42;;;;;;;5.17;4.80;;;23.40;83.40;;;;;;10526517;28;20235;-81
2022/08/19 21:56:45;;;;;;;4.30;4.10;;;23.40;83.40;;;;;;10509185;28;20615;-82
2022/08/19 22:01:47;;;;;;;5.17;4.87;;;23.40;83.00;;;;;;10507487;28;20220;-82
2022/08/19 22:06:49;;;;;;;3.87;3.57;;;23.40;84.20;;;;;;10518730;28;20191;-81
2022/08/19 22:11:53;;;;;;;3.60;3.40;;;23.40;84.80;;;;;;10536953;28;20220;-82
2022/08/19 22:16:55;;;;;;;4.07;3.77;;;23.50;85.00;;;;;;10501697;28;20297;-82
2022/08/19 22:21:59;;;;;;;4.07;3.87;;;23.50;85.00;;;;;;10529194;28;20270;-82
2022/08/19 22:27:04;;;;;;;3.90;3.73;;;23.50;85.00;;;;;;10503672;28;20199;-81
2022/08/19 22:32:07;;;;;;;4.23;3.90;;;23.50;85.90;;;;;;10506298;28;20250;-81
2022/08/19 22:37:09;;;;;;;4.07;3.83;;;23.60;85.10;;;;;;10480381;28;20201;-81
2022/08/19 22:42:12;;;;;;;3.47;3.27;;;23.60;85.50;;;;;;10496784;28;20693;-81
2022/08/19 22:47:14;;;;;;;4.20;4.00;;;23.60;85.30;;;;;;10464287;28;20640;-81
2022/08/19 22:52:17;;;;;;;3.87;3.67;;;23.60;84.90;;;;;;10480555;28;20762;-80
2022/08/19 22:57:21;;;;;;;4.10;3.73;;;23.60;84.90;;;;;;10470104;28;20205;-81
2022/08/19 23:02:27;;;;;;;4.10;3.90;;;23.60;84.60;;;;;;10478129;28;20256;-81
2022/08/19 23:07:29;;;;;;;4.10;3.90;;;23.60;84.30;;;;;;10467761;28;20212;-81
2022/08/19 23:12:38;;;;;;;3.50;3.20;;;23.60;85.60;;;;;;10452096;28;20201;-80
2022/08/19 23:17:41;;;;;;;3.70;3.50;;;23.60;84.00;;;;;;10491085;28;20624;-81
2022/08/19 23:22:44;;;;;;;4.30;3.90;;;23.50;84.40;;;;;;10443163;28;20213;-80
2022/08/19 23:33:25;;;;;;;3.73;3.43;;;23.50;84.30;;;;;;10354797;28;20583;-79
2022/08/19 23:38:31;;;;;;;4.50;4.10;;;23.40;85.20;;;;;;10455212;28;20245;-79
2022/08/19 23:43:35;;;;;;;3.90;3.70;;;23.40;85.60;;;;;;10433927;28;20233;-79
2022/08/19 23:48:37;;;;;;;5.00;3.53;;;23.30;86.30;;;;;;10468605;28;20303;-79
2022/08/19 23:53:41;;;;;;;5.40;3.50;;;23.20;87.10;;;;;;10463797;28;20280;-79
2022/08/19 23:58:47;;;;;;;3.30;2.97;;;23.20;88.50;;;;;;10478955;28;20688;-79
